createdAt,value
2022-08-07T00:00:05.844Z,17.14
2022-08-07T00:01:44.186Z,17.12
2022-08-07T00:02:41.607Z,17.08
2022-08-07T00:03:47.378Z,17.07
2022-08-07T00:04:49.169Z,17.04
2022-08-07T00:05:50.694Z,17.05
2022-08-07T00:06:52.471Z,17.04
2022-08-07T00:07:59.638Z,17.02
2022-08-07T00:09:16.350Z,16.99
2022-08-07T00:10:25.896Z,17.02
2022-08-07T00:11:30.066Z,16.98
2022-08-07T00:12:34.933Z,16.97
2022-08-07T00:13:56.791Z,16.97
2022-08-07T00:14:58.834Z,16.96
2022-08-07T00:16:00.420Z,16.95
2022-08-07T00:17:03.947Z,16.95
2022-08-07T00:18:08.157Z,16.94
2022-08-07T00:19:21.510Z,16.94
2022-08-07T00:20:29.825Z,16.92
2022-08-07T00:21:56.729Z,16.90
2022-08-07T00:22:57.383Z,16.87
2022-08-07T00:24:00.568Z,16.85
2022-08-07T00:25:04.875Z,16.87
2022-08-07T00:26:18.559Z,16.88
2022-08-07T00:27:51.668Z,16.87
2022-08-07T00:28:56.846Z,16.88
2022-08-07T00:29:58.745Z,16.88
2022-08-07T00:31:06.432Z,16.87
2022-08-07T00:32:15.113Z,16.84
2022-08-07T00:33:17.305Z,16.83
2022-08-07T00:34:19.191Z,16.83
2022-08-07T00:35:23.411Z,16.81
2022-08-07T00:36:25.550Z,16.79
2022-08-07T00:37:30.594Z,16.76
2022-08-07T00:38:50.485Z,16.76
2022-08-07T00:39:54.227Z,16.73
2022-08-07T00:40:56.417Z,16.71
2022-08-07T00:42:01.665Z,16.67
2022-08-07T00:43:04.801Z,16.62
2022-08-07T00:44:11.678Z,16.66
2022-08-07T00:45:16.670Z,16.65
2022-08-07T00:46:19.952Z,16.66
2022-08-07T00:48:07.583Z,16.63
2022-08-07T00:48:45.555Z,16.63
2022-08-07T00:50:21.132Z,16.58
2022-08-07T00:51:14.250Z,16.60
2022-08-07T00:52:19.905Z,16.59
2022-08-07T00:53:21.957Z,16.57
2022-08-07T00:54:23.582Z,16.58
2022-08-07T00:56:02.683Z,16.60
2022-08-07T00:56:49.908Z,16.58
2022-08-07T00:57:55.185Z,16.55
2022-08-07T00:58:58.559Z,16.55
2022-08-07T01:00:00.177Z,16.54
2022-08-07T01:01:02.063Z,16.55
2022-08-07T01:02:14.093Z,16.52
2022-08-07T01:03:55.358Z,16.53
2022-08-07T01:04:51.654Z,16.51
2022-08-07T01:05:56.510Z,16.50
2022-08-07T01:06:58.116Z,16.48
2022-08-07T01:07:59.622Z,16.46
2022-08-07T01:09:02.826Z,16.45
2022-08-07T01:10:11.243Z,16.47
2022-08-07T01:12:09.144Z,16.45
2022-08-07T01:12:54.042Z,16.45
2022-08-07T01:13:58.711Z,16.45
2022-08-07T01:15:01.197Z,16.44
2022-08-07T01:16:05.908Z,16.44
2022-08-07T01:17:09.070Z,16.44
2022-08-07T01:18:11.123Z,16.42
2022-08-07T01:19:21.422Z,16.40
2022-08-07T01:20:33.658Z,16.38
2022-08-07T01:21:45.725Z,16.35
2022-08-07T01:23:07.416Z,16.31
2022-08-07T01:24:11.224Z,16.31
2022-08-07T01:25:55.098Z,16.32
2022-08-07T01:26:34.976Z,16.30
2022-08-07T01:27:37.369Z,16.29
2022-08-07T01:28:46.293Z,16.28
2022-08-07T01:29:54.696Z,16.31
2022-08-07T01:30:58.723Z,16.29
2022-08-07T01:32:01.340Z,16.31
2022-08-07T01:33:07.403Z,16.30
2022-08-07T01:34:11.674Z,16.28
2022-08-07T01:35:17.280Z,16.27
2022-08-07T01:36:21.184Z,16.27
2022-08-07T01:37:37.416Z,16.27
2022-08-07T01:38:39.987Z,16.26
2022-08-07T01:39:52.063Z,16.22
2022-08-07T01:41:04.621Z,16.25
2022-08-07T01:42:39.658Z,16.27
2022-08-07T01:43:34.669Z,16.27
2022-08-07T01:44:41.914Z,16.29
2022-08-07T01:45:46.618Z,16.30
2022-08-07T01:46:53.243Z,16.32
2022-08-07T01:48:19.126Z,16.28
2022-08-07T01:49:17.646Z,16.31
2022-08-07T01:50:29.031Z,16.31
2022-08-07T01:52:02.524Z,16.30
2022-08-07T01:52:57.692Z,16.28
2022-08-07T01:54:09.534Z,16.24
2022-08-07T01:55:22.334Z,16.23
2022-08-07T01:56:32.794Z,16.23
2022-08-07T01:58:05.471Z,16.22
2022-08-07T01:59:07.611Z,16.22
2022-08-07T02:00:17.413Z,16.21
2022-08-07T02:01:59.179Z,16.19
2022-08-07T02:03:18.877Z,16.18
2022-08-07T02:04:26.650Z,16.20
2022-08-07T02:05:47.627Z,16.17
2022-08-07T02:06:54.268Z,16.13
2022-08-07T02:08:01.051Z,16.15
2022-08-07T02:09:51.713Z,16.15
2022-08-07T02:10:42.294Z,16.20
2022-08-07T02:12:03.798Z,16.18
2022-08-07T02:13:10.749Z,16.17
2022-08-07T02:14:35.730Z,16.16
2022-08-07T02:15:40.198Z,16.21
2022-08-07T02:16:42.541Z,16.25
2022-08-07T02:17:49.814Z,16.23
2022-08-07T02:18:54.485Z,16.15
2022-08-07T02:20:05.372Z,16.12
2022-08-07T02:21:13.755Z,16.07
2022-08-07T02:22:19.165Z,16.03
2022-08-07T02:23:23.969Z,16.05
2022-08-07T02:24:29.659Z,16.03
2022-08-07T02:26:30.436Z,16.03
2022-08-07T02:27:00.113Z,16.02
2022-08-07T02:28:04.742Z,16.03
2022-08-07T02:29:13.679Z,16.00
2022-08-07T02:30:17.707Z,15.97
2022-08-07T02:31:29.120Z,16.00
2022-08-07T02:32:33.639Z,16.01
2022-08-07T02:34:01.464Z,15.96
2022-08-07T02:35:01.137Z,15.92
2022-08-07T02:36:29.723Z,15.89
2022-08-07T02:37:34.077Z,15.87
2022-08-07T02:38:40.351Z,15.84
2022-08-07T02:40:12.139Z,15.84
2022-08-07T02:41:21.704Z,15.82
2022-08-07T02:42:25.633Z,15.84
2022-08-07T02:43:28.331Z,15.84
2022-08-07T02:44:34.709Z,15.81
2022-08-07T02:45:59.378Z,15.79
2022-08-07T02:47:06.704Z,15.79
2022-08-07T02:48:10.070Z,15.79
2022-08-07T02:49:12.164Z,15.78
2022-08-07T02:50:34.311Z,15.75
2022-08-07T02:51:49.753Z,15.76
2022-08-07T02:53:12.579Z,15.76
2022-08-07T02:54:16.608Z,15.73
2022-08-07T02:56:02.469Z,15.70
2022-08-07T02:56:54.742Z,15.71
2022-08-07T02:58:02.307Z,15.72
2022-08-07T02:59:09.141Z,15.74
2022-08-07T03:00:13.862Z,15.82
2022-08-07T03:01:35.527Z,15.82
2022-08-07T03:02:54.400Z,15.78
2022-08-07T03:03:58.455Z,15.76
2022-08-07T03:05:06.809Z,15.79
2022-08-07T03:06:16.547Z,15.77
2022-08-07T03:07:21.519Z,15.77
2022-08-07T03:08:42.595Z,15.73
2022-08-07T03:09:48.251Z,15.77
2022-08-07T03:10:52.808Z,15.76
2022-08-07T03:12:04.731Z,15.73
2022-08-07T03:13:09.617Z,15.73
2022-08-07T03:14:13.255Z,15.72
2022-08-07T03:15:14.988Z,15.70
2022-08-07T03:16:33.089Z,15.69
2022-08-07T03:17:52.694Z,15.68
2022-08-07T03:18:56.798Z,15.69
2022-08-07T03:19:58.729Z,15.69
2022-08-07T03:21:04.189Z,15.69
2022-08-07T03:22:06.542Z,15.69
2022-08-07T03:23:19.240Z,15.67
2022-08-07T03:24:27.526Z,15.68
2022-08-07T03:25:40.098Z,15.66
2022-08-07T03:26:58.404Z,15.66
2022-08-07T03:28:09.390Z,15.65
2022-08-07T03:29:25.031Z,15.63
2022-08-07T03:30:32.171Z,15.60
2022-08-07T03:31:56.466Z,15.59
2022-08-07T03:33:00.987Z,15.60
2022-08-07T03:34:07.682Z,15.57
2022-08-07T03:35:17.335Z,15.57
2022-08-07T03:36:25.822Z,15.58
2022-08-07T03:37:46.122Z,15.59
2022-08-07T03:39:07.408Z,15.58
2022-08-07T03:40:15.485Z,15.55
2022-08-07T03:41:18.414Z,15.58
2022-08-07T03:42:40.676Z,15.55
2022-08-07T03:43:56.898Z,15.56
2022-08-07T03:45:01.489Z,15.51
2022-08-07T03:46:10.353Z,15.50
2022-08-07T03:47:22.719Z,15.49
2022-08-07T03:48:26.228Z,15.49
2022-08-07T03:49:32.390Z,15.52
2022-08-07T03:50:34.977Z,15.50
2022-08-07T03:51:47.655Z,15.52
2022-08-07T03:53:00.995Z,15.51
2022-08-07T03:54:33.732Z,15.50
2022-08-07T03:55:57.617Z,15.49
2022-08-07T03:57:03.395Z,15.45
2022-08-07T03:58:32.979Z,15.46
2022-08-07T03:59:27.727Z,15.43
2022-08-07T04:00:35.497Z,15.44
2022-08-07T04:01:43.176Z,15.41
2022-08-07T04:02:47.711Z,15.45
2022-08-07T04:04:04.907Z,15.45
2022-08-07T04:05:09.401Z,15.43
2022-08-07T04:06:38.449Z,15.44
2022-08-07T04:07:41.749Z,15.43
2022-08-07T04:08:45.834Z,15.42
2022-08-07T04:09:50.280Z,15.44
2022-08-07T04:12:23.436Z,15.44
2022-08-07T04:12:27.890Z,15.43
2022-08-07T04:14:10.006Z,15.43
2022-08-07T04:14:56.961Z,15.44
2022-08-07T04:15:58.753Z,15.46
2022-08-07T04:17:03.221Z,15.45
2022-08-07T04:18:57.025Z,15.44
2022-08-07T04:19:50.868Z,15.48
2022-08-07T04:20:54.425Z,15.55
2022-08-07T04:22:05.364Z,15.56
2022-08-07T04:23:19.219Z,15.57
2022-08-07T04:24:30.736Z,15.54
2022-08-07T04:25:40.822Z,15.55
2022-08-07T04:26:44.482Z,15.58
2022-08-07T04:27:59.270Z,15.60
2022-08-07T04:29:04.041Z,15.59
2022-08-07T04:30:11.728Z,15.58
2022-08-07T04:31:38.751Z,15.56
2022-08-07T04:32:58.315Z,15.56
2022-08-07T04:34:02.807Z,15.56
2022-08-07T04:35:07.064Z,15.57
2022-08-07T04:36:09.504Z,15.58
2022-08-07T04:37:15.267Z,15.53
2022-08-07T04:38:22.956Z,15.62
2022-08-07T04:39:26.242Z,15.65
2022-08-07T04:40:29.960Z,15.67
2022-08-07T04:41:36.846Z,15.69
2022-08-07T04:42:38.831Z,15.74
2022-08-07T04:44:10.532Z,15.78
2022-08-07T04:45:12.994Z,15.82
2022-08-07T04:47:07.758Z,15.93
2022-08-07T04:48:23.924Z,16.06
2022-08-07T04:49:38.786Z,16.11
2022-08-07T04:50:53.100Z,16.15
2022-08-07T04:52:07.903Z,16.20
2022-08-07T04:54:01.879Z,16.28
2022-08-07T04:58:12.788Z,16.70
2022-08-07T04:58:14.030Z,17.45
2022-08-07T05:00:30.945Z,19.12
2022-08-07T05:02:20.464Z,19.94
2022-08-07T05:04:07.985Z,20.78
2022-08-07T05:05:53.155Z,21.69
2022-08-07T05:06:53.093Z,22.45
2022-08-07T05:08:59.287Z,23.01
2022-08-07T05:09:54.087Z,23.80
2022-08-07T05:11:05.394Z,24.12
2022-08-07T05:12:15.629Z,24.40
2022-08-07T05:14:56.174Z,24.64
2022-08-07T05:15:04.410Z,24.59
2022-08-07T05:16:14.234Z,24.67
2022-08-07T05:17:52.156Z,24.71
2022-08-07T05:19:10.111Z,24.91
2022-08-07T05:20:16.028Z,25.07
2022-08-07T05:21:25.274Z,25.13
2022-08-07T05:22:45.188Z,24.54
2022-08-07T05:23:57.132Z,24.11
2022-08-07T05:25:00.450Z,23.88
2022-08-07T05:26:11.700Z,23.69
2022-08-07T05:28:02.760Z,23.41
2022-08-07T05:28:48.730Z,23.07
2022-08-07T05:29:56.402Z,23.20
2022-08-07T05:30:59.725Z,23.29
2022-08-07T05:32:04.251Z,23.54
2022-08-07T05:33:09.019Z,23.94
2022-08-07T05:34:15.693Z,24.55
2022-08-07T05:35:23.806Z,25.43
2022-08-07T05:36:38.993Z,26.58
2022-08-07T05:37:46.250Z,27.38
2022-08-07T05:40:13.942Z,28.01
2022-08-07T05:40:36.633Z,29.12
2022-08-07T05:42:00.540Z,29.64
2022-08-07T05:43:05.157Z,29.34
2022-08-07T05:44:13.426Z,28.36
2022-08-07T05:45:45.990Z,27.76
2022-08-07T05:46:44.117Z,27.39
2022-08-07T05:48:01.406Z,26.86
2022-08-07T05:49:12.441Z,26.49
2022-08-07T05:50:17.024Z,26.25
2022-08-07T05:51:19.528Z,25.79
2022-08-07T05:52:32.349Z,25.23
2022-08-07T05:54:09.648Z,24.46
2022-08-07T05:54:59.262Z,23.77
2022-08-07T05:56:12.365Z,23.80
2022-08-07T05:57:18.014Z,23.57
2022-08-07T05:58:36.208Z,23.25
2022-08-07T05:59:57.311Z,22.88
2022-08-07T06:01:05.069Z,22.52
2022-08-07T06:02:08.346Z,22.20
2022-08-07T06:03:11.831Z,21.92
2022-08-07T06:04:19.545Z,21.78
2022-08-07T06:05:25.862Z,21.62
2022-08-07T06:06:29.843Z,21.58
2022-08-07T06:08:14.726Z,21.57
2022-08-07T06:08:59.733Z,21.75
2022-08-07T06:10:05.778Z,22.08
2022-08-07T06:11:08.885Z,22.93
2022-08-07T06:12:12.431Z,23.61
2022-08-07T06:13:17.554Z,24.48
2022-08-07T06:14:20.964Z,25.10
2022-08-07T06:15:39.425Z,25.55
2022-08-07T06:16:49.988Z,25.94
2022-08-07T06:17:55.362Z,25.98
2022-08-07T06:19:01.005Z,25.77
2022-08-07T06:20:04.000Z,26.00
2022-08-07T06:22:14.979Z,26.30
2022-08-07T06:22:38.464Z,26.65
2022-08-07T06:24:45.794Z,26.67
2022-08-07T06:25:22.840Z,26.86
2022-08-07T06:26:27.262Z,27.36
2022-08-07T06:27:44.052Z,28.14
2022-08-07T06:28:54.339Z,28.73
2022-08-07T06:29:57.490Z,29.07
2022-08-07T06:31:00.084Z,28.62
2022-08-07T06:32:03.673Z,28.54
2022-08-07T06:33:09.731Z,28.53
2022-08-07T06:34:20.406Z,28.78
2022-08-07T06:35:23.094Z,29.28
2022-08-07T06:36:35.245Z,29.20
2022-08-07T06:37:43.922Z,29.98
2022-08-07T06:38:51.608Z,30.55
2022-08-07T06:40:17.188Z,30.99
2022-08-07T06:42:01.970Z,31.49
2022-08-07T06:43:21.644Z,32.34
2022-08-07T06:44:42.113Z,33.08
2022-08-07T06:45:44.344Z,33.39
2022-08-07T06:46:53.633Z,32.64
2022-08-07T06:48:08.268Z,32.81
2022-08-07T06:49:16.908Z,32.45
2022-08-07T06:50:19.052Z,32.82
2022-08-07T06:51:31.320Z,33.06
2022-08-07T06:52:41.817Z,33.18
2022-08-07T06:54:12.096Z,32.86
2022-08-07T06:55:34.051Z,32.74
2022-08-07T06:56:49.343Z,33.04
2022-08-07T06:58:01.517Z,33.04
2022-08-07T07:00:13.372Z,33.07
2022-08-07T07:00:38.762Z,33.36
2022-08-07T07:01:50.840Z,33.89
2022-08-07T07:02:58.202Z,34.43
2022-08-07T07:04:32.996Z,33.76
2022-08-07T07:06:05.664Z,33.79
2022-08-07T07:07:00.334Z,33.73
2022-08-07T07:08:07.397Z,34.02
2022-08-07T07:09:18.185Z,34.15
2022-08-07T07:10:31.496Z,34.75
2022-08-07T07:12:09.096Z,35.24
2022-08-07T07:12:59.938Z,35.49
2022-08-07T07:14:05.156Z,36.02
2022-08-07T07:15:32.421Z,35.97
2022-08-07T07:16:49.982Z,35.49
2022-08-07T07:18:07.320Z,35.24
2022-08-07T07:19:54.713Z,34.88
2022-08-07T07:20:44.014Z,35.07
2022-08-07T07:22:04.594Z,34.72
2022-08-07T07:24:11.241Z,34.89
2022-08-07T07:24:32.950Z,35.21
2022-08-07T07:26:35.673Z,35.45
2022-08-07T07:27:03.954Z,35.58
2022-08-07T07:28:48.513Z,35.96
2022-08-07T07:30:09.829Z,36.17
2022-08-07T07:31:44.310Z,35.73
2022-08-07T07:32:47.347Z,34.68
2022-08-07T07:33:57.081Z,34.29
2022-08-07T07:35:01.977Z,34.37
2022-08-07T07:36:13.251Z,34.57
2022-08-07T07:37:44.447Z,34.21
2022-08-07T07:38:40.432Z,32.84
2022-08-07T07:39:54.793Z,31.65
2022-08-07T07:41:02.584Z,30.85
2022-08-07T07:42:13.998Z,30.08
2022-08-07T07:43:27.552Z,29.48
2022-08-07T07:44:49.689Z,28.76
2022-08-07T07:46:36.752Z,27.87
2022-08-07T07:47:22.741Z,27.58
2022-08-07T07:48:35.201Z,27.21
2022-08-07T07:50:33.400Z,26.61
2022-08-07T07:51:02.644Z,25.99
2022-08-07T07:52:11.050Z,25.75
2022-08-07T07:53:23.066Z,25.77
2022-08-07T07:54:27.961Z,25.81
2022-08-07T07:55:37.304Z,25.56
2022-08-07T07:56:41.244Z,25.65
2022-08-07T07:57:53.331Z,25.37
2022-08-07T07:58:58.519Z,25.19
2022-08-07T08:00:02.537Z,25.06
2022-08-07T08:02:02.512Z,24.96
2022-08-07T08:02:39.745Z,24.78
2022-08-07T08:04:10.121Z,24.92
2022-08-07T08:05:16.283Z,24.94
2022-08-07T08:06:19.550Z,24.97
2022-08-07T08:07:24.261Z,25.05
2022-08-07T08:08:39.460Z,25.17
2022-08-07T08:09:52.241Z,25.13
2022-08-07T08:11:16.569Z,25.29
2022-08-07T08:12:43.171Z,25.17
2022-08-07T08:13:53.695Z,25.16
2022-08-07T08:14:57.298Z,25.29
2022-08-07T08:16:02.254Z,25.32
2022-08-07T08:17:55.554Z,25.41
2022-08-07T08:18:29.817Z,25.42
2022-08-07T08:20:17.116Z,25.41
2022-08-07T08:20:55.760Z,25.14
2022-08-07T08:22:03.147Z,25.08
2022-08-07T08:23:09.309Z,24.98
2022-08-07T08:24:19.721Z,25.00
2022-08-07T08:25:42.752Z,25.12
2022-08-07T08:26:54.829Z,25.12
2022-08-07T08:28:03.722Z,25.12
2022-08-07T08:29:08.309Z,25.08
2022-08-07T08:30:14.335Z,25.08
2022-08-07T08:31:30.260Z,25.07
2022-08-07T08:32:58.712Z,24.97
2022-08-07T08:34:04.006Z,24.98
2022-08-07T08:35:09.620Z,24.98
2022-08-07T08:36:11.915Z,25.00
2022-08-07T08:37:59.358Z,25.08
2022-08-07T08:38:41.913Z,24.74
2022-08-07T08:39:54.650Z,24.72
2022-08-07T08:41:13.157Z,24.75
2022-08-07T08:42:40.436Z,24.70
2022-08-07T08:44:02.684Z,24.76
2022-08-07T08:45:41.528Z,24.70
2022-08-07T08:47:25.783Z,24.74
2022-08-07T08:48:39.663Z,24.68
2022-08-07T08:50:05.020Z,24.75
2022-08-07T08:51:49.658Z,24.69
2022-08-07T08:53:06.231Z,24.81
2022-08-07T08:54:19.741Z,24.75
2022-08-07T08:55:54.914Z,24.92
2022-08-07T08:56:53.134Z,24.95
2022-08-07T08:58:02.805Z,24.97
2022-08-07T08:59:20.399Z,24.89
2022-08-07T09:00:30.145Z,24.89
2022-08-07T09:02:08.999Z,24.90
2022-08-07T09:03:47.341Z,24.96
2022-08-07T09:04:57.697Z,24.97
2022-08-07T09:06:17.873Z,24.90
2022-08-07T09:07:34.019Z,24.69
2022-08-07T09:09:00.180Z,24.56
2022-08-07T09:10:15.752Z,24.69
2022-08-07T09:11:50.485Z,24.85
2022-08-07T09:13:19.918Z,24.81
2022-08-07T09:16:21.902Z,24.87
2022-08-07T09:16:56.157Z,24.76
2022-08-07T09:18:16.817Z,24.81
2022-08-07T09:19:51.418Z,24.77
2022-08-07T09:21:13.952Z,24.73
2022-08-07T09:24:31.523Z,24.76
2022-08-07T09:24:54.533Z,24.91
2022-08-07T09:26:06.538Z,24.77
2022-08-07T09:27:24.381Z,24.72
2022-08-07T09:30:05.236Z,24.77
2022-08-07T09:30:09.154Z,24.63
2022-08-07T09:31:25.817Z,24.70
2022-08-07T09:33:05.551Z,24.77
2022-08-07T09:34:26.197Z,24.92
2022-08-07T09:36:03.472Z,24.98
2022-08-07T09:37:15.271Z,24.87
2022-08-07T09:38:31.379Z,24.79
2022-08-07T09:39:57.957Z,24.77
2022-08-07T09:41:23.681Z,24.75
2022-08-07T09:43:08.372Z,24.86
2022-08-07T09:47:52.478Z,25.13
2022-08-07T09:48:50.205Z,25.09
2022-08-07T09:50:43.678Z,25.16
2022-08-07T09:52:34.167Z,25.03
2022-08-07T09:53:41.215Z,25.21
2022-08-07T09:55:17.246Z,25.33
2022-08-07T09:56:43.660Z,25.32
2022-08-07T09:58:16.932Z,25.47
2022-08-07T10:00:00.681Z,25.28
2022-08-07T10:01:52.271Z,25.13
2022-08-07T10:04:05.432Z,24.96
2022-08-07T10:05:13.860Z,25.20
2022-08-07T10:06:37.649Z,25.40
2022-08-07T10:08:16.235Z,25.43
2022-08-07T10:10:02.625Z,25.55
2022-08-07T10:12:01.886Z,25.62
2022-08-07T10:13:54.844Z,25.87
2022-08-07T10:15:30.282Z,25.80
2022-08-07T10:17:20.961Z,25.81
2022-08-07T10:18:41.069Z,25.49
2022-08-07T10:20:13.314Z,25.52
2022-08-07T10:22:14.198Z,25.41
2022-08-07T10:24:06.045Z,25.34
2022-08-07T10:24:51.297Z,25.58
2022-08-07T10:26:03.152Z,25.73
2022-08-07T10:27:16.590Z,25.82
2022-08-07T10:28:30.334Z,25.96
2022-08-07T10:29:43.418Z,26.09
2022-08-07T10:31:31.447Z,26.19
2022-08-07T10:33:30.801Z,26.08
2022-08-07T10:35:56.059Z,26.01
2022-08-07T10:37:48.119Z,26.22
2022-08-07T10:39:05.619Z,26.33
2022-08-07T10:40:34.034Z,26.24
2022-08-07T10:41:53.271Z,26.13
2022-08-07T10:43:14.055Z,26.11
2022-08-07T10:44:38.379Z,26.21
2022-08-07T10:45:58.448Z,26.40
2022-08-07T10:47:14.246Z,26.54
2022-08-07T10:48:34.993Z,26.57
2022-08-07T10:49:58.847Z,26.79
2022-08-07T10:51:07.493Z,26.69
2022-08-07T10:52:51.860Z,26.50
2022-08-07T10:54:09.474Z,26.50
2022-08-07T10:55:38.148Z,26.47
2022-08-07T10:56:53.019Z,26.57
2022-08-07T10:58:15.382Z,26.56
2022-08-07T10:59:47.278Z,26.85
2022-08-07T11:01:16.198Z,26.90
2022-08-07T11:02:53.910Z,26.89
2022-08-07T11:04:23.026Z,26.61
2022-08-07T11:06:02.715Z,26.45
2022-08-07T11:07:58.289Z,26.58
2022-08-07T11:08:54.564Z,26.45
2022-08-07T11:10:09.504Z,26.46
2022-08-07T11:11:25.334Z,26.70
2022-08-07T11:12:43.418Z,26.90
2022-08-07T11:14:44.576Z,26.97
2022-08-07T11:15:31.586Z,27.15
2022-08-07T11:16:38.858Z,27.18
2022-08-07T11:17:53.749Z,27.10
2022-08-07T11:19:21.571Z,27.08
2022-08-07T11:20:41.781Z,27.23
2022-08-07T11:22:01.679Z,27.29
2022-08-07T11:23:20.697Z,27.30
2022-08-07T11:24:52.667Z,27.42
2022-08-07T11:26:32.311Z,27.49
2022-08-07T11:28:04.063Z,27.63
2022-08-07T11:29:13.137Z,27.76
2022-08-07T11:30:45.415Z,27.67
2022-08-07T11:31:55.688Z,27.61
2022-08-07T11:33:58.370Z,27.68
2022-08-07T11:34:53.563Z,27.63
2022-08-07T11:36:30.847Z,27.55
2022-08-07T11:37:58.066Z,27.48
2022-08-07T11:39:39.842Z,27.70
2022-08-07T11:41:02.224Z,27.81
2022-08-07T11:42:38.778Z,27.92
2022-08-07T11:44:12.037Z,28.02
2022-08-07T11:45:35.978Z,28.24
2022-08-07T11:46:58.768Z,28.34
2022-08-07T11:48:29.214Z,28.22
2022-08-07T11:50:30.960Z,28.10
2022-08-07T11:51:47.733Z,28.21
2022-08-07T11:53:14.450Z,27.94
2022-08-07T11:54:54.973Z,27.56
2022-08-07T11:56:27.006Z,27.68
2022-08-07T11:57:58.053Z,27.80
2022-08-07T12:00:09.948Z,27.76
2022-08-07T12:01:02.120Z,27.85
2022-08-07T12:02:10.216Z,27.86
2022-08-07T12:03:46.879Z,27.93
2022-08-07T12:05:47.349Z,28.00
2022-08-07T12:07:20.215Z,28.17
2022-08-07T12:08:37.921Z,28.22
2022-08-07T12:10:08.365Z,28.39
2022-08-07T12:11:21.202Z,28.30
2022-08-07T12:12:30.829Z,28.52
2022-08-07T12:13:47.846Z,28.65
2022-08-07T12:15:01.486Z,28.68
2022-08-07T12:16:09.290Z,28.65
2022-08-07T12:17:19.744Z,28.57
2022-08-07T12:18:45.464Z,28.60
2022-08-07T12:20:02.602Z,28.65
2022-08-07T12:21:15.056Z,28.76
2022-08-07T12:22:58.345Z,28.88
2022-08-07T12:24:40.176Z,29.04
2022-08-07T12:26:05.722Z,28.83
2022-08-07T12:27:16.192Z,28.63
2022-08-07T12:28:31.215Z,28.58
2022-08-07T12:29:37.753Z,28.67
2022-08-07T12:30:46.870Z,28.66
2022-08-07T12:32:04.900Z,28.44
2022-08-07T12:33:23.415Z,28.39
2022-08-07T12:34:34.373Z,28.32
2022-08-07T12:35:37.044Z,28.32
2022-08-07T12:36:40.612Z,28.44
2022-08-07T12:38:11.630Z,28.63
2022-08-07T12:39:42.772Z,28.84
2022-08-07T12:40:47.645Z,29.09
2022-08-07T12:41:53.468Z,29.10
2022-08-07T12:42:59.159Z,29.12
2022-08-07T12:44:06.985Z,29.11
2022-08-07T12:45:18.059Z,28.98
2022-08-07T12:46:26.406Z,28.84
2022-08-07T12:47:55.190Z,28.96
2022-08-07T12:49:40.171Z,29.21
2022-08-07T12:51:17.072Z,29.61
2022-08-07T12:52:33.876Z,29.46
2022-08-07T12:54:24.089Z,29.34
2022-08-07T12:55:16.617Z,29.09
2022-08-07T12:56:29.041Z,28.91
2022-08-07T12:58:01.118Z,28.96
2022-08-07T12:58:59.607Z,29.17
2022-08-07T13:00:03.403Z,29.26
2022-08-07T13:01:32.141Z,29.48
2022-08-07T13:02:47.229Z,29.88
2022-08-07T13:04:06.345Z,29.94
2022-08-07T13:06:04.820Z,29.92
2022-08-07T13:08:13.824Z,30.12
2022-08-07T13:10:17.771Z,30.51
2022-08-07T13:11:08.605Z,30.67
2022-08-07T13:12:28.862Z,30.72
2022-08-07T13:14:03.195Z,30.59
2022-08-07T13:15:29.846Z,30.76
2022-08-07T13:17:06.713Z,30.65
2022-08-07T13:18:49.125Z,30.55
2022-08-07T13:20:00.181Z,30.51
2022-08-07T13:21:11.065Z,30.36
2022-08-07T13:22:27.473Z,30.19
2022-08-07T13:24:01.163Z,30.22
2022-08-07T13:25:03.747Z,30.39
2022-08-07T13:26:26.676Z,30.36
2022-08-07T13:28:12.552Z,30.57
2022-08-07T13:29:11.687Z,30.42
2022-08-07T13:30:18.875Z,30.37
2022-08-07T13:31:32.120Z,30.49
2022-08-07T13:32:58.653Z,30.61
2022-08-07T13:34:34.221Z,30.33
2022-08-07T13:36:17.397Z,30.25
2022-08-07T13:37:37.883Z,30.30
2022-08-07T13:38:49.467Z,30.18
2022-08-07T13:40:36.238Z,30.00
2022-08-07T13:41:54.692Z,30.05
2022-08-07T13:43:01.037Z,30.15
2022-08-07T13:44:10.239Z,30.34
2022-08-07T13:46:06.769Z,30.58
2022-08-07T13:46:48.797Z,30.66
2022-08-07T13:48:07.758Z,30.70
2022-08-07T13:50:34.378Z,30.69
2022-08-07T13:50:55.595Z,30.64
2022-08-07T13:52:22.926Z,30.70
2022-08-07T13:53:26.325Z,31.00
2022-08-07T13:54:39.805Z,31.16
2022-08-07T13:55:54.364Z,31.26
2022-08-07T13:56:59.735Z,31.24
2022-08-07T13:58:08.086Z,31.12
2022-08-07T13:59:24.579Z,30.97
2022-08-07T14:00:50.609Z,30.76
2022-08-07T14:02:04.701Z,30.71
2022-08-07T14:03:08.760Z,31.00
2022-08-07T14:04:16.841Z,31.16
2022-08-07T14:05:24.078Z,31.37
2022-08-07T14:06:36.911Z,31.25
2022-08-07T14:08:00.448Z,31.29
2022-08-07T14:09:05.162Z,31.57
2022-08-07T14:10:21.727Z,31.42
2022-08-07T14:11:53.834Z,31.40
2022-08-07T14:13:02.555Z,31.37
2022-08-07T14:14:11.351Z,31.29
2022-08-07T14:15:36.954Z,31.17
2022-08-07T14:16:41.758Z,30.98
2022-08-07T14:18:24.041Z,31.16
2022-08-07T14:20:42.315Z,31.31
2022-08-07T14:21:11.651Z,31.53
2022-08-07T14:22:34.785Z,31.75
2022-08-07T14:24:01.709Z,31.95
2022-08-07T14:25:11.743Z,32.18
2022-08-07T14:26:28.132Z,32.32
2022-08-07T14:28:12.143Z,32.28
2022-08-07T14:30:02.829Z,32.45
2022-08-07T14:30:33.179Z,32.20
2022-08-07T14:31:42.394Z,31.87
2022-08-07T14:33:11.142Z,31.70
2022-08-07T14:34:20.155Z,31.78
2022-08-07T14:35:43.279Z,31.80
2022-08-07T14:36:55.973Z,31.92
2022-08-07T14:38:05.835Z,32.05
2022-08-07T14:39:09.362Z,31.94
2022-08-07T14:40:26.661Z,31.98
2022-08-07T14:41:34.155Z,32.01
2022-08-07T14:44:22.779Z,31.98
2022-08-07T14:45:46.575Z,31.66
2022-08-07T14:48:20.905Z,31.71
2022-08-07T14:49:58.480Z,31.46
2022-08-07T14:50:52.213Z,31.53
2022-08-07T14:52:04.315Z,31.56
2022-08-07T14:53:09.675Z,31.60
2022-08-07T14:54:31.096Z,31.75
2022-08-07T14:55:38.301Z,31.70
2022-08-07T14:57:00.277Z,31.49
2022-08-07T14:58:05.859Z,31.64
2022-08-07T14:59:13.487Z,31.65
2022-08-07T15:00:34.455Z,31.41
2022-08-07T15:01:42.364Z,31.41
2022-08-07T15:02:46.836Z,31.42
2022-08-07T15:04:06.222Z,31.53
2022-08-07T15:05:19.618Z,31.59
2022-08-07T15:06:25.475Z,31.65
2022-08-07T15:08:53.129Z,31.56
2022-08-07T15:10:01.984Z,31.64
2022-08-07T15:11:14.979Z,31.80
2022-08-07T15:12:25.965Z,31.94
2022-08-07T15:13:56.678Z,32.08
2022-08-07T15:15:17.434Z,31.85
2022-08-07T15:16:31.239Z,31.92
2022-08-07T15:17:55.193Z,32.03
2022-08-07T15:19:00.705Z,32.20
2022-08-07T15:20:33.107Z,32.10
2022-08-07T15:21:58.496Z,32.06
2022-08-07T15:22:57.978Z,32.09
2022-08-07T15:25:12.691Z,32.13
2022-08-07T15:25:36.434Z,32.10
2022-08-07T15:26:44.376Z,32.13
2022-08-07T15:28:30.921Z,32.18
2022-08-07T15:30:04.834Z,32.20
2022-08-07T15:31:04.619Z,32.32
2022-08-07T15:32:04.995Z,32.20
2022-08-07T15:33:19.210Z,32.02
2022-08-07T15:34:22.216Z,31.95
2022-08-07T15:37:03.964Z,31.89
2022-08-07T15:38:29.726Z,31.66
2022-08-07T15:39:57.507Z,31.43
2022-08-07T15:41:24.164Z,31.34
2022-08-07T15:44:03.503Z,31.61
2022-08-07T15:45:09.439Z,31.35
2022-08-07T15:46:37.736Z,31.15
2022-08-07T15:48:00.807Z,30.98
2022-08-07T15:50:37.866Z,30.77
2022-08-07T15:53:10.987Z,30.58
2022-08-07T15:54:14.569Z,30.40
2022-08-07T15:55:20.277Z,30.16
2022-08-07T15:56:33.313Z,30.14
2022-08-07T15:57:39.883Z,30.07
2022-08-07T15:58:55.542Z,30.15
2022-08-07T15:59:59.290Z,30.08
2022-08-07T16:01:04.149Z,30.03
2022-08-07T16:02:08.544Z,30.00
2022-08-07T16:03:20.932Z,30.03
2022-08-07T16:04:42.301Z,30.05
2022-08-07T16:05:51.045Z,30.02
2022-08-07T16:06:55.776Z,29.98
2022-08-07T16:08:32.669Z,29.94
2022-08-07T16:09:48.530Z,29.93
2022-08-07T16:11:02.736Z,30.01
2022-08-07T16:12:38.069Z,29.87
2022-08-07T16:13:58.816Z,29.68
2022-08-07T16:15:55.483Z,29.49
2022-08-07T16:17:15.059Z,29.45
2022-08-07T16:18:49.506Z,29.35
2022-08-07T16:20:02.846Z,29.37
2022-08-07T16:21:57.009Z,29.21
2022-08-07T16:23:05.085Z,29.27
2022-08-07T16:24:33.677Z,29.27
2022-08-07T16:25:56.653Z,29.05
2022-08-07T16:27:17.980Z,28.99
2022-08-07T16:30:08.899Z,28.99
2022-08-07T16:30:11.592Z,28.87
2022-08-07T16:31:50.410Z,28.83
2022-08-07T16:34:01.685Z,28.84
2022-08-07T16:34:38.477Z,28.81
2022-08-07T16:36:19.792Z,28.88
2022-08-07T16:38:06.254Z,28.92
2022-08-07T16:39:40.216Z,28.89
2022-08-07T16:41:27.495Z,28.84
2022-08-07T16:43:03.920Z,28.75